createdAt,value
2023-04-18T00:01:28.894Z,102216.00
2023-04-18T00:03:55.969Z,102197.25
2023-04-18T00:06:22.580Z,102208.16
2023-04-18T00:08:49.255Z,102211.13
2023-04-18T00:11:15.760Z,102224.66
2023-04-18T00:13:42.233Z,102198.63
2023-04-18T00:16:08.903Z,102197.78
2023-04-18T00:18:36.817Z,102212.38
2023-04-18T00:21:04.371Z,102213.00
2023-04-18T00:23:31.158Z,102223.25
2023-04-18T00:25:57.529Z,102229.09
2023-04-18T00:28:23.986Z,102211.34
2023-04-18T00:30:50.609Z,102218.25
2023-04-18T00:33:17.271Z,102229.59
2023-04-18T00:35:43.780Z,102221.66
2023-04-18T00:38:10.477Z,102197.03
2023-04-18T00:40:37.847Z,102234.53
2023-04-18T00:43:04.348Z,102216.09
2023-04-18T00:45:30.874Z,102225.31
2023-04-18T00:47:57.330Z,102227.13
2023-04-18T00:50:24.597Z,102225.28
2023-04-18T00:52:52.131Z,102222.50
2023-04-18T00:55:18.916Z,102220.34
2023-04-18T00:57:45.978Z,102208.94
2023-04-18T01:00:12.962Z,102220.44
2023-04-18T01:02:40.080Z,102212.63
2023-04-18T01:05:08.039Z,102225.56
2023-04-18T01:07:37.317Z,102222.31
2023-04-18T01:10:04.396Z,102214.63
2023-04-18T01:12:31.350Z,102222.22
2023-04-18T01:14:58.956Z,102217.53
2023-04-18T01:17:25.409Z,102222.47
2023-04-18T01:19:51.880Z,102237.94
2023-04-18T01:22:19.829Z,102216.25
2023-04-18T01:24:46.261Z,102216.00
2023-04-18T01:27:13.855Z,102236.19
2023-04-18T01:29:41.018Z,102231.91
2023-04-18T01:32:07.843Z,102230.03
2023-04-18T01:34:34.424Z,102221.16
2023-04-18T01:51:17.938Z,102218.50
2023-04-18T01:53:44.493Z,102213.41
2023-04-18T01:56:11.002Z,102207.59
2023-04-18T01:58:37.552Z,102205.28
2023-04-18T02:01:04.440Z,102227.75
2023-04-18T02:03:31.134Z,102210.06
2023-04-18T02:05:57.682Z,102224.81
2023-04-18T02:08:24.209Z,102228.59
2023-04-18T02:10:50.783Z,102205.25
2023-04-18T02:13:17.251Z,102225.31
2023-04-18T02:15:45.940Z,102209.88
2023-04-18T02:18:12.479Z,102223.91
2023-04-18T02:20:39.349Z,102220.41
2023-04-18T02:23:05.993Z,102198.38
2023-04-18T02:25:32.829Z,102213.25
2023-04-18T02:27:59.278Z,102196.72
2023-04-18T02:30:26.323Z,102219.84
2023-04-18T02:32:54.634Z,102214.84
2023-04-18T02:35:21.344Z,102201.91
2023-04-18T02:37:47.776Z,102226.63
2023-04-18T02:40:14.424Z,102229.75
2023-04-18T02:42:40.952Z,102211.38
2023-04-18T02:45:08.576Z,102219.03
2023-04-18T02:47:46.900Z,102226.09
2023-04-18T02:50:18.091Z,102226.84
2023-04-18T02:52:44.581Z,102223.34
2023-04-18T02:55:11.082Z,102230.63
2023-04-18T02:57:37.563Z,102221.06
2023-04-18T03:00:06.565Z,102230.78
2023-04-18T03:02:33.130Z,102216.53
2023-04-18T03:04:59.737Z,102231.97
2023-04-18T03:07:26.390Z,102229.75
2023-04-18T03:09:52.828Z,102227.03
2023-04-18T03:12:19.274Z,102230.66
2023-04-18T03:14:45.857Z,102234.50
2023-04-18T03:17:12.428Z,102218.66
2023-04-18T03:19:38.873Z,102228.00
2023-04-18T03:22:06.020Z,102217.59
2023-04-18T03:24:32.501Z,102233.19
2023-04-18T03:27:00.562Z,102234.72
2023-04-18T03:29:27.033Z,102236.06
2023-04-18T03:31:53.753Z,102249.97
2023-04-18T03:34:20.184Z,102249.97
2023-04-18T03:36:48.015Z,102233.31
2023-04-18T03:39:14.807Z,102238.94
2023-04-18T03:41:41.287Z,102239.53
2023-04-18T03:44:07.729Z,102236.00
2023-04-18T03:46:34.558Z,102225.34
2023-04-18T03:49:01.176Z,102237.81
2023-04-18T03:51:27.760Z,102239.69
2023-04-18T03:53:54.234Z,102232.03
2023-04-18T03:56:20.792Z,102240.06
2023-04-18T03:58:47.236Z,102239.16
2023-04-18T04:01:13.746Z,102238.66
2023-04-18T04:03:40.554Z,102247.75
2023-04-18T04:06:07.270Z,102250.06
2023-04-18T04:08:33.971Z,102244.31
2023-04-18T04:11:00.424Z,102253.34
2023-04-18T04:13:26.839Z,102260.41
2023-04-18T04:15:53.401Z,102255.31
2023-04-18T04:18:20.220Z,102246.91
2023-04-18T04:20:46.671Z,102252.97
2023-04-18T04:23:13.106Z,102263.47
2023-04-18T04:25:39.596Z,102257.19
2023-04-18T04:28:06.781Z,102264.41
2023-04-18T04:30:33.758Z,102248.81
2023-04-18T04:33:01.725Z,102254.38
2023-04-18T04:35:28.444Z,102263.53
2023-04-18T04:37:54.922Z,102258.03
2023-04-18T04:40:23.050Z,102252.63
2023-04-18T04:42:53.986Z,102265.00
2023-04-18T04:45:20.717Z,102272.75
2023-04-18T04:47:47.607Z,102278.88
2023-04-18T04:50:15.727Z,102269.31
2023-04-18T04:52:42.834Z,102268.56
2023-04-18T04:55:09.818Z,102265.00
2023-04-18T04:57:36.315Z,102268.25
2023-04-18T05:00:04.609Z,102268.91
2023-04-18T05:02:31.404Z,102275.75
2023-04-18T05:04:57.923Z,102281.47
2023-04-18T05:07:24.378Z,102272.34
2023-04-18T05:09:53.200Z,102276.84
2023-04-18T05:12:19.813Z,102286.09
2023-04-18T05:14:46.274Z,102282.47
2023-04-18T05:17:12.764Z,102279.25
2023-04-18T05:19:39.561Z,102278.25
2023-04-18T05:22:06.003Z,102295.59
2023-04-18T05:24:32.927Z,102275.53
2023-04-18T05:26:59.436Z,102274.63
2023-04-18T05:29:26.089Z,102293.66
2023-04-18T05:31:55.882Z,102256.34
2023-04-18T05:34:22.415Z,102288.22
2023-04-18T05:36:49.230Z,102262.16
2023-04-18T05:39:16.824Z,102294.97
2023-04-18T05:41:43.370Z,102254.66
2023-04-18T05:44:09.929Z,102254.81
2023-04-18T05:46:36.818Z,102267.19
2023-04-18T05:49:04.204Z,102277.25
2023-04-18T05:51:31.390Z,102272.75
2023-04-18T05:54:12.469Z,102299.66
2023-04-18T05:56:39.486Z,102230.94
2023-04-18T05:59:09.080Z,102290.81
2023-04-18T06:01:35.769Z,102253.75
2023-04-18T06:04:02.433Z,102295.19
2023-04-18T06:06:29.358Z,102286.94
2023-04-18T06:08:55.908Z,102296.56
2023-04-18T06:11:22.742Z,102272.56
2023-04-18T06:13:49.449Z,102286.78
2023-04-18T06:16:16.142Z,102257.75
2023-04-18T06:18:42.616Z,102303.66
2023-04-18T06:21:11.666Z,102269.44
2023-04-18T06:23:38.634Z,102269.09
2023-04-18T06:26:06.188Z,102268.47
2023-04-18T06:28:33.018Z,102252.19
2023-04-18T06:30:59.538Z,102247.38
2023-04-18T06:33:26.226Z,102257.72
2023-04-18T06:35:52.881Z,102274.16
2023-04-18T06:38:19.391Z,102308.66
2023-04-18T06:40:45.857Z,102251.22
2023-04-18T06:43:12.384Z,102283.75
2023-04-18T06:45:38.979Z,102306.47
2023-04-18T06:48:06.019Z,102313.22
2023-04-18T06:50:32.512Z,102303.72
2023-04-18T06:52:58.983Z,102305.09
2023-04-18T06:55:25.513Z,102303.72
2023-04-18T06:57:52.123Z,102308.56
2023-04-18T07:00:18.879Z,102293.81
2023-04-18T07:02:45.625Z,102315.72
2023-04-18T07:05:12.403Z,102311.44
2023-04-18T07:07:39.200Z,102306.78
2023-04-18T07:10:06.138Z,102314.69
2023-04-18T07:12:32.592Z,102314.22
2023-04-18T07:14:59.031Z,102300.34
2023-04-18T07:17:25.676Z,102300.50
2023-04-18T07:19:52.194Z,102283.88
2023-04-18T07:22:18.626Z,102306.72
2023-04-18T07:24:45.084Z,102316.81
2023-04-18T07:27:11.569Z,102311.47
2023-04-18T07:29:38.005Z,102303.78
2023-04-18T07:32:06.122Z,102302.44
2023-04-18T07:34:36.090Z,102305.09
2023-04-18T07:37:02.728Z,102318.38
2023-04-18T07:39:29.265Z,102301.44
2023-04-18T07:41:55.800Z,102328.81
2023-04-18T07:44:22.267Z,102293.56
2023-04-18T07:46:48.763Z,102316.38
2023-04-18T07:49:15.372Z,102299.63
2023-04-18T07:51:41.869Z,102311.78
2023-04-18T07:54:08.370Z,102300.38
2023-04-18T07:56:35.037Z,102330.78
2023-04-18T07:59:01.839Z,102313.84
2023-04-18T08:01:28.348Z,102318.97
2023-04-18T08:03:56.580Z,102311.06
2023-04-18T08:06:23.267Z,102301.00
2023-04-18T08:08:53.054Z,102305.66
2023-04-18T08:11:19.750Z,102298.91
2023-04-18T08:13:46.325Z,102310.94
2023-04-18T08:16:14.252Z,102314.56
2023-04-18T08:18:42.741Z,102308.38
2023-04-18T08:21:09.394Z,102316.66
2023-04-18T08:23:35.842Z,102297.03
2023-04-18T08:26:02.319Z,102308.91
2023-04-18T08:28:28.798Z,102323.59
2023-04-18T08:30:56.592Z,102297.47
2023-04-18T08:33:24.101Z,102299.19
2023-04-18T08:35:54.211Z,102311.97
2023-04-18T08:38:21.046Z,102322.38
2023-04-18T08:40:47.438Z,102320.72
2023-04-18T08:43:15.672Z,102322.91
2023-04-18T08:45:43.187Z,102301.78
2023-04-18T08:48:14.263Z,102279.34
2023-04-18T08:50:42.122Z,102277.97
2023-04-18T08:53:09.039Z,102302.66
2023-04-18T08:55:36.008Z,102334.09
2023-04-18T08:58:04.926Z,102304.41
2023-04-18T09:00:31.442Z,102322.81
2023-04-18T09:02:58.332Z,102335.44
2023-04-18T09:05:26.984Z,102328.44
2023-04-18T09:07:55.147Z,102330.34
2023-04-18T09:10:33.430Z,102338.16
2023-04-18T09:13:03.257Z,102335.63
2023-04-18T09:15:30.693Z,102312.13
2023-04-18T09:18:00.212Z,102320.00
2023-04-18T09:20:38.184Z,102327.47
2023-04-18T09:23:11.058Z,102319.81
2023-04-18T09:25:45.084Z,102322.69
2023-04-18T09:28:23.218Z,102317.13
2023-04-18T09:30:54.331Z,102323.22
2023-04-18T09:33:29.546Z,102320.19
2023-04-18T09:35:57.288Z,102331.25
2023-04-18T09:38:40.492Z,102318.50
2023-04-18T09:41:13.437Z,102320.59
2023-04-18T09:43:40.529Z,102322.22
2023-04-18T09:46:09.136Z,102323.69
2023-04-18T09:48:36.060Z,102310.41
2023-04-18T09:51:05.841Z,102316.50
2023-04-18T09:53:34.861Z,102314.53
2023-04-18T09:56:03.380Z,102307.97
2023-04-18T09:58:33.112Z,102331.66
2023-04-18T10:00:59.613Z,102304.94
2023-04-18T10:03:35.055Z,102304.19
2023-04-18T10:06:01.943Z,102310.00
2023-04-18T10:08:28.429Z,102322.81
2023-04-18T10:10:56.639Z,102303.13
2023-04-18T10:13:24.121Z,102304.84
2023-04-18T10:15:52.426Z,102294.69
2023-04-18T10:18:23.488Z,102291.91
2023-04-18T10:20:50.030Z,102309.06
2023-04-18T10:23:32.025Z,102312.50
2023-04-18T10:25:59.223Z,102311.59
2023-04-18T10:28:27.494Z,102298.91
2023-04-18T10:30:56.661Z,102283.63
2023-04-18T10:33:40.808Z,102292.00
2023-04-18T10:36:08.853Z,102301.91
2023-04-18T10:38:38.748Z,102288.81
2023-04-18T10:41:21.309Z,102308.00
2023-04-18T10:44:07.598Z,102302.81
2023-04-18T10:46:39.090Z,102300.03
2023-04-18T10:49:27.322Z,102299.78
2023-04-18T10:51:56.411Z,102300.03
2023-04-18T10:54:37.468Z,102291.13
2023-04-18T10:57:05.425Z,102302.56
2023-04-18T10:59:35.868Z,102297.84
2023-04-18T11:02:11.357Z,102295.53
2023-04-18T11:04:38.061Z,102291.59
2023-04-18T11:07:04.962Z,102302.72
2023-04-18T11:09:31.370Z,102301.56
2023-04-18T11:12:05.202Z,102306.69
2023-04-18T11:14:45.919Z,102302.63
2023-04-18T11:17:24.420Z,102303.38
2023-04-18T11:19:59.342Z,102291.28
2023-04-18T11:22:26.048Z,102294.38
2023-04-18T11:24:57.202Z,102288.03
2023-04-18T11:27:25.805Z,102299.31
2023-04-18T11:29:56.038Z,102285.03
2023-04-18T11:32:26.235Z,102289.00
2023-04-18T11:34:54.569Z,102293.34
2023-04-18T11:37:22.091Z,102278.28
2023-04-18T11:39:48.752Z,102271.97
2023-04-18T11:42:18.168Z,102283.22
2023-04-18T11:44:49.061Z,102290.25
2023-04-18T11:47:43.014Z,102287.97
2023-04-18T11:50:12.617Z,102284.00
2023-04-18T11:52:42.621Z,102293.38
2023-04-18T11:55:15.086Z,102287.63
2023-04-18T11:57:41.997Z,102269.16
2023-04-18T12:00:10.482Z,102279.28
2023-04-18T12:02:45.708Z,102279.22
2023-04-18T12:05:15.005Z,102269.44
2023-04-18T12:07:44.859Z,102285.50
2023-04-18T12:10:20.149Z,102287.66
2023-04-18T12:12:51.481Z,102291.91
2023-04-18T12:15:19.088Z,102281.25
2023-04-18T12:17:53.500Z,102277.91
2023-04-18T12:20:20.163Z,102255.38
2023-04-18T12:22:51.423Z,102257.13
2023-04-18T12:25:27.414Z,102250.63
2023-04-18T12:28:03.608Z,102263.88
2023-04-18T12:30:37.381Z,102262.06
2023-04-18T12:33:04.829Z,102265.94
2023-04-18T12:35:32.663Z,102260.44
2023-04-18T12:38:00.933Z,102269.13
2023-04-18T12:40:28.895Z,102254.16
2023-04-18T12:42:56.065Z,102256.25
2023-04-18T12:45:23.687Z,102251.91
2023-04-18T12:47:51.416Z,102236.91
2023-04-18T12:50:20.113Z,102252.59
2023-04-18T12:52:46.851Z,102269.00
2023-04-18T12:55:14.067Z,102266.75
2023-04-18T12:57:42.131Z,102272.44
2023-04-18T13:00:11.252Z,102259.28
2023-04-18T13:02:39.762Z,102257.56
2023-04-18T13:05:08.070Z,102261.63
2023-04-18T13:07:37.444Z,102246.69
2023-04-18T13:10:04.882Z,102246.78
2023-04-18T13:12:31.423Z,102247.31
2023-04-18T13:14:57.918Z,102239.34
2023-04-18T13:17:24.482Z,102261.19
2023-04-18T13:19:51.921Z,102260.06
2023-04-18T13:22:21.817Z,102251.25
2023-04-18T13:24:48.578Z,102225.69
2023-04-18T13:27:15.138Z,102248.25
2023-04-18T13:29:43.320Z,102250.28
2023-04-18T13:32:10.206Z,102244.53
2023-04-18T13:34:39.121Z,102243.50
2023-04-18T13:37:06.428Z,102246.53
2023-04-18T13:39:33.685Z,102254.97
2023-04-18T13:42:02.982Z,102234.06
2023-04-18T13:44:30.608Z,102218.97
2023-04-18T13:46:57.780Z,102226.72
2023-04-18T13:49:24.333Z,102245.25
2023-04-18T13:51:53.524Z,102242.56
2023-04-18T13:54:20.183Z,102232.97
2023-04-18T13:56:46.757Z,102237.59
2023-04-18T13:59:13.444Z,102238.22
2023-04-18T14:01:40.140Z,102240.25
2023-04-18T14:04:06.896Z,102242.03
2023-04-18T14:06:33.487Z,102232.56
2023-04-18T14:08:59.927Z,102227.13
2023-04-18T14:11:26.610Z,102213.59
2023-04-18T14:13:53.167Z,102237.06
2023-04-18T14:16:19.724Z,102236.69
2023-04-18T14:18:59.951Z,102225.34
2023-04-18T14:21:26.656Z,102204.31
2023-04-18T14:23:53.504Z,102235.38
2023-04-18T14:26:20.809Z,102233.72
2023-04-18T14:28:47.724Z,102232.19
2023-04-18T14:31:15.378Z,102236.94
2023-04-18T14:33:42.286Z,102218.38
2023-04-18T14:36:09.653Z,102214.91
2023-04-18T14:38:36.640Z,102211.63
2023-04-18T14:41:06.496Z,102210.47
2023-04-18T14:43:32.953Z,102223.78
2023-04-18T14:45:59.845Z,102215.09
2023-04-18T14:48:27.657Z,102220.13
2023-04-18T14:50:58.799Z,102225.94
2023-04-18T14:56:54.035Z,102206.28
2023-04-18T14:59:20.812Z,102209.28
2023-04-18T15:01:47.476Z,102204.56
2023-04-18T15:04:14.341Z,102203.28
2023-04-18T15:06:41.528Z,102204.41
2023-04-18T15:09:07.964Z,102222.72
2023-04-18T15:11:34.516Z,102215.09
2023-04-18T15:14:06.836Z,102198.88
2023-04-18T15:16:51.658Z,102215.88
2023-04-18T15:19:18.247Z,102186.50
2023-04-18T15:21:45.034Z,102192.72
2023-04-18T15:24:11.846Z,102187.16
2023-04-18T15:26:38.473Z,102176.63
2023-04-18T15:29:05.005Z,102181.97
2023-04-18T15:31:31.770Z,102207.94
2023-04-18T15:33:58.272Z,102211.56
2023-04-18T15:36:24.727Z,102182.09
2023-04-18T15:38:51.193Z,102199.09
2023-04-18T15:41:17.641Z,102198.91
2023-04-18T15:43:45.484Z,102200.75
2023-04-18T15:46:12.211Z,102190.09
2023-04-18T15:48:38.665Z,102205.09
2023-04-18T15:51:05.364Z,102202.03
2023-04-18T15:53:31.943Z,102207.25
2023-04-18T15:56:01.066Z,102204.38
2023-04-18T15:58:30.160Z,102208.31
2023-04-18T16:00:57.255Z,102213.50
2023-04-18T16:03:24.679Z,102206.47
2023-04-18T16:05:51.817Z,102216.97
2023-04-18T16:08:18.271Z,102204.66
2023-04-18T16:10:45.155Z,102194.09
2023-04-18T16:13:11.663Z,102183.69
2023-04-18T16:15:41.609Z,102180.34
2023-04-18T16:18:08.727Z,102200.34
2023-04-18T16:20:35.674Z,102188.19
2023-04-18T16:23:02.434Z,102198.94
2023-04-18T16:25:28.896Z,102217.25
2023-04-18T16:27:55.337Z,102194.28
2023-04-18T16:30:21.873Z,102181.09
2023-04-18T16:32:48.685Z,102199.28
2023-04-18T16:35:15.269Z,102201.03
2023-04-18T16:37:41.793Z,102205.78
2023-04-18T16:40:10.239Z,102196.50
2023-04-18T16:42:37.448Z,102194.78
2023-04-18T16:45:04.281Z,102211.88
2023-04-18T16:47:30.692Z,102214.22
2023-04-18T16:49:57.221Z,102204.84
2023-04-18T16:52:24.597Z,102208.38
2023-04-18T16:54:52.616Z,102202.94
2023-04-18T16:57:19.322Z,102201.91
2023-04-18T16:59:46.310Z,102202.34
2023-04-18T17:02:13.104Z,102220.25
2023-04-18T17:04:39.970Z,102217.13
2023-04-18T17:07:18.726Z,102231.69
2023-04-18T17:09:54.577Z,102196.66
2023-04-18T17:12:21.075Z,102201.47
2023-04-18T17:14:47.555Z,102231.00
2023-04-18T17:17:14.255Z,102213.63
2023-04-18T17:19:47.107Z,102195.78
2023-04-18T17:22:13.638Z,102224.97
2023-04-18T17:24:40.073Z,102215.13
2023-04-18T17:27:06.722Z,102229.72
2023-04-18T17:29:33.176Z,102240.06
2023-04-18T17:31:59.694Z,102224.34
2023-04-18T17:34:26.972Z,102229.78
2023-04-18T17:36:53.425Z,102233.00
2023-04-18T17:39:20.359Z,102245.09
2023-04-18T17:41:46.843Z,102244.47
2023-04-18T17:44:13.435Z,102236.88
2023-04-18T17:46:39.884Z,102234.28
2023-04-18T17:49:06.356Z,102235.44
2023-04-18T17:51:32.826Z,102231.41
2023-04-18T17:53:59.247Z,102252.84
2023-04-18T17:56:26.541Z,102249.00
2023-04-18T17:58:56.798Z,102226.78
2023-04-18T18:01:28.826Z,102224.19
2023-04-18T18:03:58.275Z,102241.66
2023-04-18T18:06:24.996Z,102262.28
2023-04-18T18:08:57.013Z,102246.28
2023-04-18T18:11:30.729Z,102253.97
2023-04-18T18:14:03.909Z,102254.75
2023-04-18T18:16:30.425Z,102264.03
2023-04-18T18:18:58.212Z,102240.81
2023-04-18T18:21:24.662Z,102266.84
2023-04-18T18:23:51.128Z,102272.22
2023-04-18T18:26:17.707Z,102283.75
2023-04-18T18:28:44.228Z,102285.00
2023-04-18T18:31:10.984Z,102272.91
2023-04-18T18:33:37.530Z,102284.16
2023-04-18T18:36:04.307Z,102272.84
2023-04-18T18:38:30.667Z,102293.97
2023-04-18T18:40:57.147Z,102287.59
2023-04-18T18:43:26.280Z,102286.56
2023-04-18T18:45:52.796Z,102299.69
2023-04-18T18:48:19.237Z,102302.38
2023-04-18T18:50:45.708Z,102295.97
2023-04-18T18:53:12.148Z,102285.91
2023-04-18T18:55:38.611Z,102299.91
2023-04-18T18:58:17.036Z,102300.94
2023-04-18T19:00:43.538Z,102303.00
2023-04-18T19:03:10.107Z,102294.72
2023-04-18T19:05:36.711Z,102285.53
2023-04-18T19:08:04.976Z,102304.53
2023-04-18T19:10:31.527Z,102288.88
2023-04-18T19:12:58.026Z,102300.88
2023-04-18T19:15:24.593Z,102292.09
2023-04-18T19:17:51.338Z,102305.31
2023-04-18T19:20:20.925Z,102321.28
2023-04-18T19:22:47.609Z,102290.38
2023-04-18T19:25:14.410Z,102299.66
2023-04-18T19:27:40.837Z,102314.47
2023-04-18T19:30:13.546Z,102311.09
2023-04-18T19:32:40.233Z,102310.63
2023-04-18T19:35:07.223Z,102288.63
2023-04-18T19:37:33.929Z,102283.25
2023-04-18T19:40:02.889Z,102326.59
2023-04-18T19:42:29.672Z,102289.53
2023-04-18T19:44:56.551Z,102324.28
2023-04-18T19:47:23.220Z,102305.59
2023-04-18T19:49:49.837Z,102297.88
2023-04-18T19:52:19.196Z,102278.19
2023-04-18T19:54:45.937Z,102303.75
2023-04-18T19:57:12.414Z,102314.78
2023-04-18T19:59:41.286Z,102288.31
2023-04-18T20:02:10.666Z,102289.75
2023-04-18T20:04:37.772Z,102310.09
2023-04-18T20:07:04.546Z,102274.59
2023-04-18T20:09:31.204Z,102309.53
2023-04-18T20:12:00.555Z,102290.22
2023-04-18T20:14:28.108Z,102279.94
2023-04-18T20:16:56.119Z,102268.03
2023-04-18T20:19:25.795Z,102257.75
2023-04-18T20:21:54.852Z,102315.53
2023-04-18T20:24:22.184Z,102272.78
2023-04-18T20:26:48.926Z,102267.13
2023-04-18T20:29:18.392Z,102305.78
2023-04-18T20:31:44.902Z,102294.19
2023-04-18T20:34:11.605Z,102299.97
2023-04-18T20:36:41.658Z,102284.41
2023-04-18T20:39:09.223Z,102304.53
2023-04-18T20:41:37.072Z,102294.22
2023-04-18T20:44:06.601Z,102270.94
2023-04-18T20:46:33.335Z,102276.88
2023-04-18T20:49:11.081Z,102278.63
2023-04-18T20:51:38.370Z,102271.75
2023-04-18T20:54:07.116Z,102312.81
2023-04-18T20:56:36.416Z,102283.69
2023-04-18T20:59:04.778Z,102301.72
2023-04-18T21:01:31.496Z,102309.44
2023-04-18T21:03:58.070Z,102316.16
2023-04-18T21:06:24.675Z,102299.63
2023-04-18T21:08:55.433Z,102289.09
2023-04-18T21:11:21.968Z,102304.00
2023-04-18T21:13:48.438Z,102308.06
2023-04-18T21:16:15.073Z,102297.63
2023-04-18T21:18:41.560Z,102322.19
2023-04-18T21:21:07.980Z,102302.25
2023-04-18T21:23:41.380Z,102318.28
2023-04-18T21:26:13.187Z,102297.66
2023-04-18T21:29:00.132Z,102323.84
2023-04-18T21:31:28.941Z,102328.31
2023-04-18T21:33:56.893Z,102313.94
2023-04-18T21:36:28.506Z,102313.75
2023-04-18T21:38:56.235Z,102300.13
2023-04-18T21:41:23.645Z,102306.50
2023-04-18T21:43:50.642Z,102314.28
2023-04-18T21:46:17.665Z,102314.94
2023-04-18T21:48:46.973Z,102322.28
2023-04-18T21:51:15.753Z,102275.34
2023-04-18T21:53:42.841Z,102323.91
2023-04-18T21:56:09.523Z,102309.88
2023-04-18T21:58:35.885Z,102321.66
2023-04-18T22:01:02.778Z,102311.84
2023-04-18T22:03:29.968Z,102321.53
2023-04-18T22:05:57.454Z,102300.19
2023-04-18T22:08:28.302Z,102299.09
2023-04-18T22:10:57.689Z,102307.53
2023-04-18T22:13:30.058Z,102307.28
2023-04-18T22:15:58.240Z,102287.16
2023-04-18T22:18:25.075Z,102301.09
2023-04-18T22:20:53.696Z,102298.59
2023-04-18T22:23:20.394Z,102279.81
2023-04-18T22:25:46.893Z,102278.66
2023-04-18T22:28:13.374Z,102284.13
2023-04-18T22:30:39.857Z,102285.19
2023-04-18T22:33:06.361Z,102281.63
2023-04-18T22:35:33.059Z,102274.97
2023-04-18T22:37:59.426Z,102288.91
2023-04-18T22:40:25.850Z,102285.41
2023-04-18T22:42:52.680Z,102274.22
2023-04-18T22:45:19.486Z,102280.00
2023-04-18T22:47:46.765Z,102283.78
2023-04-18T22:50:14.074Z,102275.34
2023-04-18T22:52:40.736Z,102279.94
2023-04-18T22:55:07.413Z,102274.16
2023-04-18T22:57:33.879Z,102269.31
2023-04-18T23:00:00.320Z,102261.13
2023-04-18T23:02:26.961Z,102242.72
2023-04-18T23:04:53.480Z,102273.81
2023-04-18T23:07:20.042Z,102265.84
2023-04-18T23:09:46.448Z,102263.13
2023-04-18T23:12:12.872Z,102256.63
2023-04-18T23:14:41.779Z,102247.72
2023-04-18T23:17:08.552Z,102252.34
2023-04-18T23:19:34.988Z,102272.47
2023-04-18T23:22:01.584Z,102262.75
2023-04-18T23:24:28.076Z,102268.09
2023-04-18T23:26:54.539Z,102256.00
2023-04-18T23:29:21.014Z,102269.00
2023-04-18T23:31:47.472Z,102264.47
2023-04-18T23:34:14.225Z,102254.97
2023-04-18T23:36:40.788Z,102250.84
2023-04-18T23:39:08.538Z,102245.38
2023-04-18T23:41:35.007Z,102241.25
2023-04-18T23:44:01.452Z,102261.72
2023-04-18T23:46:27.952Z,102258.00
2023-04-18T23:48:54.701Z,102269.75
2023-04-18T23:51:21.072Z,102267.19
2023-04-18T23:53:47.493Z,102248.19
2023-04-18T23:56:13.969Z,102235.44
2023-04-18T23:58:40.460Z,102246.28
